Time;durP1;ratioP1;P1;durP2;ratioP2;P2;SDS_P1;SDS_P2;PMS_P1;PMS_P2;Temp;Humidity;BMP_temperature;BMP_pressure;BME280_temperature;BME280_humidity;BME280_pressure;Samples;Min_cycle;Max_cycle;Signal;HPM_P1;HPM_P2
2022/12/13 00:00:04;;;;;;;6.68;4.38;;;;;;;0.86;69.12;94214.31;5033000;28;20033;-71
2022/12/13 00:02:29;;;;;;;8.07;5.40;;;;;;;0.90;67.79;94227.75;5015148;28;20562;-71
2022/12/13 00:04:55;;;;;;;8.07;5.28;;;;;;;0.89;67.88;94232.06;5032893;28;20038;-71
2022/12/13 00:07:20;;;;;;;7.88;5.22;;;;;;;0.70;68.88;94228.84;5031569;28;20508;-71
2022/12/13 00:09:46;;;;;;;9.65;5.97;;;;;;;0.65;69.13;94238.47;5031408;28;20423;-71
2022/12/13 00:12:11;;;;;;;9.10;6.00;;;;;;;0.46;69.50;94250.59;5032722;28;20044;-71
2022/12/13 00:14:36;;;;;;;8.50;5.53;;;;;;;0.40;68.98;94252.56;5031475;28;20041;-71
2022/12/13 00:17:02;;;;;;;8.48;5.22;;;;;;;-0.01;70.09;94218.91;5032636;28;20036;-71
2022/12/13 00:19:27;;;;;;;8.65;4.75;;;;;;;-0.12;69.73;94244.16;5019438;28;20487;-71
2022/12/13 00:21:53;;;;;;;7.00;4.30;;;;;;;-0.15;70.67;94237.50;5052164;28;20419;-71
2022/12/13 00:24:18;;;;;;;7.65;4.70;;;;;;;-0.29;69.57;94250.13;5051089;28;20025;-71
2022/12/13 00:26:44;;;;;;;7.35;4.68;;;;;;;-0.35;69.12;94255.53;5052221;28;20033;-71
2022/12/13 00:29:09;;;;;;;6.68;4.15;;;;;;;-0.21;69.69;94248.00;5051121;28;20025;-71
2022/12/13 00:31:35;;;;;;;8.18;4.95;;;;;;;-0.25;70.65;94239.69;5034639;28;20044;-71
2022/12/13 00:34:00;;;;;;;10.57;6.38;;;;;;;-0.23;70.47;94245.53;5050985;28;20033;-71
2022/12/13 00:36:26;;;;;;;12.13;6.72;;;;;;;-0.10;70.51;94257.69;5052543;28;20033;-71
2022/12/13 00:38:59;;;;;;;9.73;5.68;;;;;;;-0.11;71.25;94248.38;5050994;28;20028;-70
2022/12/13 00:41:25;;;;;;;8.68;5.30;;;;;;;-0.18;70.83;94250.41;5050187;28;20495;-71
2022/12/13 00:43:51;;;;;;;8.05;5.07;;;;;;;-0.17;71.42;94246.94;5041857;28;20061;-71
2022/12/13 00:46:18;;;;;;;11.05;6.75;;;;;;;-0.11;71.97;94249.22;5030955;28;20040;-71
2022/12/13 00:48:44;;;;;;;13.63;7.20;;;;;;;-0.09;71.09;94257.59;5014398;28;20032;-71
2022/12/13 00:51:10;;;;;;;13.07;9.80;;;;;;;-0.02;70.52;94261.50;5030872;28;20037;-71
2022/12/13 00:53:35;;;;;;;12.95;8.45;;;;;;;0.11;70.31;94268.53;5014387;28;20029;-71
2022/12/13 00:56:01;;;;;;;12.23;7.72;;;;;;;0.15;70.76;94263.22;5030222;28;20033;-71
2022/12/13 00:58:27;;;;;;;13.02;7.05;;;;;;;0.03;72.25;94247.66;5030636;28;20033;-71
2022/12/13 01:00:52;;;;;;;10.02;6.13;;;;;;;0.01;70.47;94262.28;5014143;28;20037;-71
2022/12/13 01:03:24;;;;;;;10.27;5.80;;;;;;;-0.10;69.11;94245.75;5031995;28;20029;-71
2022/12/13 01:05:49;;;;;;;9.43;5.90;;;;;;;-0.03;69.03;94246.25;5032009;28;20037;-71
2022/12/13 01:08:15;;;;;;;9.98;5.82;;;;;;;0.05;69.62;94253.53;5013716;28;20032;-71
2022/12/13 01:10:44;;;;;;;9.13;5.60;;;;;;;0.18;70.75;94262.22;5030432;28;20045;-71
2022/12/13 01:13:10;;;;;;;11.88;6.57;;;;;;;0.11;70.98;94260.88;5030348;28;20026;-71
2022/12/13 01:15:40;;;;;;;11.80;6.25;;;;;;;0.02;70.58;94266.47;5013995;28;20116;-71
2022/12/13 01:18:05;;;;;;;9.05;5.57;;;;;;;-0.05;70.94;94259.13;5013960;28;20025;-71
2022/12/13 01:20:30;;;;;;;9.85;5.50;;;;;;;-0.30;71.20;94268.91;5043528;28;20408;-71
2022/12/13 01:22:56;;;;;;;9.77;6.15;;;;;;;-0.31;70.87;94273.16;5050043;28;20038;-71
2022/12/13 01:25:21;;;;;;;9.25;5.63;;;;;;;-0.33;70.60;94274.97;5051193;28;20044;-71
2022/12/13 01:27:47;;;;;;;10.18;5.80;;;;;;;-0.43;71.83;94265.28;5049910;28;20036;-71
2022/12/13 01:30:12;;;;;;;9.15;5.47;;;;;;;-0.40;71.24;94277.91;5033344;28;20037;-71
2022/12/13 01:32:38;;;;;;;10.85;6.07;;;;;;;-0.40;71.71;94270.25;5050429;28;20045;-71
2022/12/13 01:35:03;;;;;;;10.55;6.25;;;;;;;-0.52;71.55;94259.72;5050991;28;20491;-71
2022/12/13 01:37:29;;;;;;;12.02;6.20;;;;;;;-0.40;71.76;94265.97;5051264;28;20411;-71
2022/12/13 01:39:54;;;;;;;12.23;6.95;;;;;;;-0.32;71.88;94263.03;5049771;28;20029;-71
2022/12/13 01:42:20;;;;;;;12.32;6.93;;;;;;;-0.35;71.17;94260.63;5049654;28;20043;-71
2022/12/13 01:45:25;;;;;;;8.68;5.90;;;;;;;-0.38;70.72;94261.59;5049649;28;20029;-71
2022/12/13 01:47:54;;;;;;;10.43;5.28;;;;;;;-0.54;68.96;94224.97;5045426;28;20067;-71
2022/12/13 01:50:46;;;;;;;9.07;5.55;;;;;;;-0.35;70.63;94260.63;5028499;28;20089;-71
2022/12/13 01:53:16;;;;;;;9.75;5.82;;;;;;;-0.35;71.32;94258.09;5029506;28;20064;-71
2022/12/13 01:55:41;;;;;;;10.68;6.20;;;;;;;-0.29;71.38;94256.03;5028760;28;20033;-71
2022/12/13 01:58:07;;;;;;;9.95;5.82;;;;;;;-0.42;71.67;94270.31;5025115;28;20106;-71
2022/12/13 02:00:33;;;;;;;9.40;5.85;;;;;;;-0.43;71.49;94273.75;5032869;28;20048;-70
2022/12/13 02:02:58;;;;;;;9.63;6.00;;;;;;;-0.57;72.06;94271.06;5032845;28;20577;-71
2022/12/13 02:05:31;;;;;;;13.50;6.25;;;;;;;-0.70;71.58;94260.59;5024974;28;20041;-71
2022/12/13 02:07:57;;;;;;;10.00;5.53;;;;;;;-0.67;71.56;94260.44;5042656;28;20053;-71
2022/12/13 02:10:22;;;;;;;10.50;5.90;;;;;;;-0.55;71.82;94277.75;5012479;28;20051;-71
2022/12/13 02:12:48;;;;;;;9.23;4.93;;;;;;;-0.64;71.61;94267.13;5041837;28;20041;-71
2022/12/13 02:15:14;;;;;;;8.27;4.90;;;;;;;-0.71;71.45;94248.75;5038862;28;20036;-71
2022/12/13 02:18:18;;;;;;;8.60;5.05;;;;;;;-0.47;72.13;94273.09;5027981;28;20423;-71
2022/12/13 02:20:53;;;;;;;9.63;5.30;;;;;;;-0.51;71.98;94265.66;5034310;28;20048;-71
2022/12/13 02:23:29;;;;;;;11.70;6.72;;;;;;;-0.55;72.07;94259.88;5043625;28;20047;-70
2022/12/13 02:26:13;;;;;;;9.10;4.78;;;;;;;-0.53;72.05;94267.44;5028107;28;20072;-70
2022/12/13 02:29:00;;;;;;;7.45;4.55;;;;;;;-0.70;71.62;94268.25;5040722;28;20091;-70
2022/12/13 02:31:35;;;;;;;7.75;4.57;;;;;;;-0.71;70.87;94274.28;5045573;28;20785;-70
2022/12/13 02:34:09;;;;;;;7.40;4.90;;;;;;;-0.68;70.97;94269.84;5040553;28;20266;-71
2022/12/13 02:37:04;;;;;;;8.68;5.10;;;;;;;-0.85;71.63;94263.91;5028708;28;20122;-71
2022/12/13 02:39:32;;;;;;;7.55;4.40;;;;;;;-0.78;71.71;94283.09;5044922;28;20124;-71
2022/12/13 02:42:06;;;;;;;8.52;4.55;;;;;;;-0.85;72.01;94284.31;5028992;28;20036;-71
2022/12/13 02:44:59;;;;;;;9.93;5.13;;;;;;;-0.94;71.68;94277.91;5048092;28;20037;-70
2022/12/13 02:47:24;;;;;;;8.05;4.55;;;;;;;-0.85;71.71;94276.66;5029666;28;20063;-70
2022/12/13 02:49:52;;;;;;;9.50;5.43;;;;;;;-0.80;72.35;94284.91;5016343;28;20429;-71
2022/12/13 02:52:19;;;;;;;9.60;5.25;;;;;;;-0.87;72.00;94260.59;5031369;28;20032;-71
2022/12/13 02:54:45;;;;;;;9.40;5.10;;;;;;;-0.79;72.05;94286.56;5050048;28;20045;-71
2022/12/13 02:57:34;;;;;;;10.05;5.07;;;;;;;-0.87;70.64;94281.81;5030281;28;20463;-71
2022/12/13 03:00:14;;;;;;;11.57;5.47;;;;;;;-0.81;71.27;94284.06;5049414;28;20057;-71
2022/12/13 03:02:47;;;;;;;10.57;4.85;;;;;;;-0.74;71.94;94282.06;5049546;28;20036;-70
2022/12/13 03:08:48;;;;;;;10.50;5.35;;;;;;;-0.81;71.83;94301.09;5050118;28;20043;-71
2022/12/13 03:11:14;;;;;;;8.73;4.55;;;;;;;-0.85;71.40;94294.50;5051127;28;20083;-71
2022/12/13 03:13:48;;;;;;;9.50;4.75;;;;;;;-0.75;71.30;94293.19;5034028;28;20032;-70
2022/12/13 03:16:25;;;;;;;9.82;5.15;;;;;;;-0.98;71.30;94261.09;5052130;28;20036;-70
2022/12/13 03:18:51;;;;;;;11.43;5.60;;;;;;;-0.85;70.85;94285.13;5051676;28;20036;-70
2022/12/13 03:21:17;;;;;;;8.05;5.15;;;;;;;-0.77;71.11;94294.97;5014218;28;20120;-70
2022/12/13 03:23:42;;;;;;;9.65;5.50;;;;;;;-0.76;70.89;94281.31;5031007;28;20508;-71
2022/12/13 03:26:19;;;;;;;9.02;5.53;;;;;;;-0.80;70.64;94290.84;5031868;28;20064;-70
2022/12/13 03:28:44;;;;;;;8.90;5.38;;;;;;;-0.87;71.05;94288.63;5032304;28;20033;-71
2022/12/13 03:31:09;;;;;;;8.90;5.45;;;;;;;-1.00;70.59;94285.84;5033853;28;20044;-70
2022/12/13 03:33:35;;;;;;;9.02;5.10;;;;;;;-1.00;70.26;94284.13;5015732;28;20487;-71
2022/12/13 03:36:01;;;;;;;9.70;5.00;;;;;;;-0.93;70.13;94289.75;5031423;28;20072;-70
2022/12/13 03:38:26;;;;;;;9.15;5.32;;;;;;;-1.01;70.98;94292.66;5032171;28;20025;-70
2022/12/13 03:40:53;;;;;;;9.77;5.93;;;;;;;-0.93;70.56;94295.66;5015564;28;20072;-71
2022/12/13 03:43:18;;;;;;;10.02;5.53;;;;;;;-1.02;70.15;94296.09;5015387;28;20029;-71
2022/12/13 03:45:44;;;;;;;9.13;5.60;;;;;;;-1.02;69.89;94295.28;5015547;28;20470;-71
2022/12/13 03:48:09;;;;;;;10.88;6.10;;;;;;;-0.95;69.20;94291.53;5015425;28;20393;-71
2022/12/13 03:50:35;;;;;;;10.18;5.43;;;;;;;-1.02;69.25;94288.47;5033084;28;20466;-71
2022/12/13 03:53:00;;;;;;;8.82;5.05;;;;;;;-1.01;69.53;94291.81;5031813;28;20025;-71
2022/12/13 03:55:26;;;;;;;8.85;5.55;;;;;;;-1.25;70.12;94294.59;5032529;28;20033;-71
2022/12/13 03:57:52;;;;;;;11.48;5.72;;;;;;;-1.13;70.45;94291.50;5031676;28;20431;-71
2022/12/13 04:00:17;;;;;;;9.18;5.32;;;;;;;-1.16;70.39;94284.00;5031826;28;20044;-70
2022/12/13 04:02:43;;;;;;;10.98;5.82;;;;;;;-1.18;71.10;94310.44;5032767;28;20029;-70
2022/12/13 04:05:08;;;;;;;10.40;5.55;;;;;;;-1.17;71.22;94312.09;5031543;28;20099;-71
2022/12/13 04:07:33;;;;;;;10.32;5.68;;;;;;;-1.43;71.50;94310.72;5032803;28;20033;-71
2022/12/13 04:09:59;;;;;;;11.20;5.60;;;;;;;-1.36;71.45;94312.94;5031586;28;20041;-71
2022/12/13 04:15:08;;;;;;;11.70;5.40;;;;;;;-1.41;70.27;94289.38;5032838;28;20427;-71
2022/12/13 04:17:34;;;;;;;11.45;5.38;;;;;;;-1.25;70.26;94332.03;5032872;28;20030;-71
2022/12/13 04:19:59;;;;;;;9.50;5.20;;;;;;;-1.33;70.93;94334.91;5031295;28;20030;-71
2022/12/13 04:22:25;;;;;;;9.10;5.25;;;;;;;-1.60;71.10;94314.81;5014665;28;20029;-70
2022/12/13 04:24:50;;;;;;;8.77;5.18;;;;;;;-1.63;70.71;94334.50;5031239;28;20029;-70
2022/12/13 04:27:16;;;;;;;10.18;5.68;;;;;;;-1.63;70.90;94345.53;5031208;28;20033;-70
2022/12/13 04:29:41;;;;;;;10.15;6.03;;;;;;;-1.62;70.11;94336.97;5032643;28;20037;-70
2022/12/13 04:32:07;;;;;;;10.25;6.40;;;;;;;-1.55;69.53;94337.56;5032248;28;20566;-70
2022/12/13 04:34:32;;;;;;;12.60;6.28;;;;;;;-1.54;70.29;94358.75;5032302;28;20459;-70
2022/12/13 04:36:58;;;;;;;8.60;5.07;;;;;;;-1.63;70.14;94349.78;5030904;28;20480;-70
2022/12/13 04:39:23;;;;;;;9.10;5.32;;;;;;;-1.74;69.24;94368.06;5032140;28;20048;-70
2022/12/13 04:41:50;;;;;;;10.93;5.60;;;;;;;-1.92;70.20;94348.47;5032110;28;20040;-70
2022/12/13 04:44:16;;;;;;;10.18;5.43;;;;;;;-1.62;70.09;94371.81;5030933;28;20096;-70
2022/12/13 04:46:42;;;;;;;10.40;6.20;;;;;;;-1.66;70.01;94386.41;5031078;28;20439;-70
2022/12/13 04:49:07;;;;;;;10.43;6.53;;;;;;;-1.72;70.27;94380.75;5030862;28;20472;-71
2022/12/13 04:51:33;;;;;;;12.20;6.80;;;;;;;-1.98;70.70;94369.91;5030938;28;20109;-70
2022/12/13 04:53:58;;;;;;;16.08;8.23;;;;;;;-2.01;70.59;94380.22;5030782;28;20032;-70
2022/12/13 04:56:24;;;;;;;21.50;10.52;;;;;;;-2.29;70.92;94383.88;5030736;28;20061;-70
2022/12/13 04:58:49;;;;;;;17.50;9.35;;;;;;;-2.50;71.55;94369.47;5031867;28;20030;-70
2022/12/13 05:01:15;;;;;;;15.32;8.05;;;;;;;-2.58;71.99;94384.22;5032105;28;20041;-70
2022/12/13 05:03:41;;;;;;;15.82;8.55;;;;;;;-2.57;72.12;94393.50;5031755;28;20029;-70
2022/12/13 05:06:08;;;;;;;17.00;9.02;;;;;;;-2.54;72.40;94390.81;5030624;28;20103;-70
2022/12/13 05:08:33;;;;;;;15.50;8.77;;;;;;;-2.41;71.93;94397.09;5018627;28;20037;-70
2022/12/13 05:10:58;;;;;;;15.50;8.35;;;;;;;-2.60;72.17;94393.59;5028267;28;20037;-70
2022/12/13 05:13:24;;;;;;;13.90;7.65;;;;;;;-2.82;72.31;94394.41;5032325;28;20098;-70
2022/12/13 05:15:56;;;;;;;15.27;8.32;;;;;;;-3.14;72.89;94367.66;5027119;28;20040;-70
2022/12/13 05:18:22;;;;;;;15.80;8.40;;;;;;;-3.05;73.42;94399.53;5039824;28;20055;-70
2022/12/13 05:20:49;;;;;;;17.10;8.95;;;;;;;-3.10;73.71;94398.88;5026389;28;20037;-70
2022/12/13 05:23:15;;;;;;;15.07;8.35;;;;;;;-3.02;73.30;94401.97;5040245;28;20052;-70
2022/12/13 05:25:41;;;;;;;17.30;8.27;;;;;;;-2.94;73.71;94395.72;5043267;28;20198;-70
2022/12/13 05:28:06;;;;;;;13.63;8.05;;;;;;;-3.09;73.76;94397.97;5037619;28;20033;-70
2022/12/13 05:30:32;;;;;;;14.43;8.40;;;;;;;-2.94;72.97;94395.72;5038041;28;20385;-70
2022/12/13 05:32:58;;;;;;;16.13;8.68;;;;;;;-2.81;73.12;94408.81;5042767;28;20103;-70
2022/12/13 05:35:23;;;;;;;13.43;7.70;;;;;;;-3.09;73.30;94385.28;5035611;28;20037;-70
2022/12/13 05:37:51;;;;;;;14.23;7.50;;;;;;;-2.87;72.61;94408.19;5036591;28;20588;-70
2022/12/13 05:40:17;;;;;;;13.50;7.75;;;;;;;-2.79;72.82;94417.19;5039493;28;20034;-71
2022/12/13 05:42:43;;;;;;;17.98;8.77;;;;;;;-2.68;72.09;94433.75;5024382;28;20087;-69
2022/12/13 05:45:15;;;;;;;42.95;16.15;;;;;;;-2.75;72.37;94413.66;5038729;28;20024;-71
2022/12/13 05:47:41;;;;;;;17.38;9.10;;;;;;;-2.64;72.08;94440.41;5023195;28;20055;-71
2022/12/13 05:50:10;;;;;;;21.55;10.52;;;;;;;-2.51;71.94;94439.88;5036406;28;20496;-71
2022/12/13 05:52:35;;;;;;;48.72;17.20;;;;;;;-2.40;72.53;94439.44;5036805;28;20036;-72
2022/12/13 05:55:01;;;;;;;63.92;22.60;;;;;;;-2.29;72.84;94444.94;5012758;28;20439;-71
2022/12/13 05:57:26;;;;;;;28.50;13.10;;;;;;;-2.59;71.71;94453.75;5037432;28;20045;-71
2022/12/13 05:59:52;;;;;;;30.92;13.68;;;;;;;-2.48;71.97;94446.53;5035963;28;20099;-71
2022/12/13 06:02:17;;;;;;;26.25;11.82;;;;;;;-2.32;71.89;94447.63;5029124;28;20029;-71
2022/12/13 06:04:43;;;;;;;28.90;14.27;;;;;;;-2.27;71.83;94438.09;5030152;28;20033;-71
2022/12/13 06:07:09;;;;;;;21.40;11.25;;;;;;;-2.35;72.10;94445.19;5034784;28;20036;-71
2022/12/13 06:09:35;;;;;;;18.05;10.52;;;;;;;-2.31;71.54;94446.75;5021930;28;20029;-71
2022/12/13 06:12:00;;;;;;;19.65;11.00;;;;;;;-2.17;71.02;94450.44;5045398;28;20029;-71
2022/12/13 06:14:25;;;;;;;17.38;9.20;;;;;;;-2.22;71.98;94453.19;5030517;28;20029;-71
2022/12/13 06:16:51;;;;;;;15.65;9.10;;;;;;;-2.19;72.42;94458.16;5049666;28;20029;-71
2022/12/13 06:19:17;;;;;;;15.90;9.15;;;;;;;-2.19;72.26;94454.81;5051056;28;20024;-72
2022/12/13 06:21:42;;;;;;;17.67;8.60;;;;;;;-2.10;72.23;94460.34;5034888;28;20040;-71
2022/12/13 06:24:07;;;;;;;14.45;8.38;;;;;;;-2.06;72.48;94458.53;5034876;28;20040;-71
2022/12/13 06:26:33;;;;;;;13.48;7.93;;;;;;;-2.07;72.81;94451.75;5050938;28;20037;-71
2022/12/13 06:28:58;;;;;;;13.27;8.63;;;;;;;-2.14;72.92;94443.53;5034862;28;20087;-71
2022/12/13 06:31:24;;;;;;;17.52;9.27;;;;;;;-2.15;72.99;94434.22;5051109;28;20454;-71
2022/12/13 06:33:50;;;;;;;16.98;9.90;;;;;;;-2.18;71.98;94433.53;5052102;28;20043;-72
2022/12/13 06:36:15;;;;;;;19.40;11.00;;;;;;;-2.15;71.66;94438.50;5053516;28;20060;-71
2022/12/13 06:38:41;;;;;;;19.17;11.15;;;;;;;-2.15;71.01;94449.50;5053918;28;20033;-71
2022/12/13 06:41:07;;;;;;;21.92;11.60;;;;;;;-2.14;70.60;94458.00;5054744;28;20033;-71
2022/12/13 06:43:33;;;;;;;22.95;10.10;;;;;;;-2.28;69.95;94467.00;5054541;28;20025;-72
2022/12/13 06:45:58;;;;;;;18.55;11.32;;;;;;;-2.37;69.93;94464.78;5054508;28;20032;-72
2022/12/13 06:48:24;;;;;;;17.33;10.98;;;;;;;-2.49;70.31;94470.34;5054468;28;20021;-71
2022/12/13 06:50:49;;;;;;;18.05;9.68;;;;;;;-2.82;71.18;94463.06;5036468;28;20041;-71
2022/12/13 06:53:15;;;;;;;17.33;9.50;;;;;;;-2.72;71.72;94461.84;5054454;28;20025;-71
2022/12/13 06:55:40;;;;;;;19.88;11.07;;;;;;;-2.62;71.69;94464.91;5052668;28;20033;-71
2022/12/13 06:58:05;;;;;;;27.73;13.93;;;;;;;-2.77;71.13;94445.09;5052863;28;20107;-71
2022/12/13 07:00:31;;;;;;;24.42;13.40;;;;;;;-2.65;71.44;94464.16;5054178;28;20033;-71
2022/12/13 07:02:56;;;;;;;25.75;15.55;;;;;;;-2.84;72.15;94467.41;5052775;28;20486;-72
2022/12/13 07:05:22;;;;;;;25.80;13.20;;;;;;;-2.79;72.47;94465.50;5054154;28;20082;-72
2022/12/13 07:07:47;;;;;;;18.63;11.80;;;;;;;-2.83;72.26;94466.50;5051840;28;20040;-72
2022/12/13 07:10:13;;;;;;;19.95;10.95;;;;;;;-2.71;72.19;94460.97;5053206;28;20044;-72
2022/12/13 07:12:38;;;;;;;25.63;12.38;;;;;;;-2.81;72.60;94454.56;5035095;28;20492;-72
2022/12/13 07:15:04;;;;;;;21.60;13.00;;;;;;;-2.62;71.98;94487.78;5007511;28;20041;-73
2022/12/13 07:17:30;;;;;;;20.67;10.75;;;;;;;-2.77;71.91;94483.25;5048574;28;20025;-71
2022/12/13 07:19:55;;;;;;;19.63;10.90;;;;;;;-2.72;71.44;94474.56;5022690;28;20510;-71
2022/12/13 07:22:21;;;;;;;19.90;10.77;;;;;;;-2.84;72.12;94481.81;5052343;28;20435;-71
2022/12/13 07:24:46;;;;;;;26.40;13.93;;;;;;;-2.81;72.38;94490.16;5043860;28;20040;-71
2022/12/13 07:27:12;;;;;;;27.02;12.90;;;;;;;-2.71;72.46;94485.56;5038188;28;20029;-71
2022/12/13 07:29:37;;;;;;;20.95;11.60;;;;;;;-2.60;72.37;94508.06;5034340;28;20030;-71
2022/12/13 07:32:03;;;;;;;22.52;10.93;;;;;;;-2.46;72.04;94490.56;5032098;28;20021;-71
2022/12/13 07:34:29;;;;;;;18.70;10.93;;;;;;;-2.28;71.63;94509.44;5027624;28;20022;-71
2022/12/13 07:36:54;;;;;;;21.42;11.70;;;;;;;-2.05;71.18;94508.53;5045500;28;20040;-71
2022/12/13 07:39:24;;;;;;;19.63;10.38;;;;;;;-2.09;71.66;94501.91;5047952;28;20028;-70
2022/12/13 07:41:53;;;;;;;19.92;10.57;;;;;;;-1.94;71.73;94503.03;5050311;28;20033;-71
2022/12/13 07:44:19;;;;;;;23.25;11.90;;;;;;;-1.93;70.81;94497.03;5053159;28;20396;-71
2022/12/13 07:46:44;;;;;;;18.05;9.68;;;;;;;-1.78;69.10;94504.09;5032532;28;20080;-72
2022/12/13 07:49:10;;;;;;;21.00;9.77;;;;;;;-1.77;69.25;94504.91;5032042;28;20025;-71
2022/12/13 07:51:36;;;;;;;18.88;10.20;;;;;;;-1.68;69.09;94496.91;5032133;28;20488;-71
2022/12/13 07:54:01;;;;;;;17.40;10.30;;;;;;;-1.71;70.24;94502.94;4999084;28;20028;-71
2022/12/13 07:56:27;;;;;;;18.85;10.20;;;;;;;-1.65;71.22;94506.97;5015196;28;20508;-71
2022/12/13 07:58:52;;;;;;;18.95;10.75;;;;;;;-1.84;70.03;94492.44;5032184;28;20469;-71
2022/12/13 08:01:17;;;;;;;21.63;10.80;;;;;;;-1.80;69.57;94508.41;5031859;28;20462;-72
2022/12/13 08:03:43;;;;;;;19.25;10.60;;;;;;;-1.59;69.12;94514.34;5031721;28;20022;-71
2022/12/13 08:06:10;;;;;;;22.83;13.68;;;;;;;-1.24;68.80;94507.81;5015471;28;20082;-72
2022/12/13 08:08:36;;;;;;;23.63;14.07;;;;;;;-1.21;68.82;94489.84;5031742;28;20033;-72
2022/12/13 08:11:05;;;;;;;33.88;16.52;;;;;;;-1.01;68.76;94517.03;5033173;28;20455;-71
2022/12/13 08:13:31;;;;;;;29.75;14.80;;;;;;;-1.04;68.90;94506.97;5032850;28;20479;-72
2022/12/13 08:15:58;;;;;;;28.70;14.63;;;;;;;-1.06;67.76;94507.94;5031611;28;20061;-72
2022/12/13 08:18:24;;;;;;;28.92;14.48;;;;;;;-0.97;68.24;94521.13;5015097;28;20078;-72
2022/12/13 08:20:49;;;;;;;21.58;11.43;;;;;;;-0.93;67.25;94520.09;4998546;28;20030;-72
2022/12/13 08:23:15;;;;;;;20.90;10.88;;;;;;;-0.93;66.82;94511.63;5032912;28;20036;-72
2022/12/13 08:25:40;;;;;;;23.08;12.23;;;;;;;-0.71;67.60;94530.19;5031684;28;20033;-72
2022/12/13 08:28:05;;;;;;;22.55;12.18;;;;;;;-0.59;68.52;94522.91;5032637;28;20475;-71
2022/12/13 08:30:31;;;;;;;20.85;12.70;;;;;;;-0.34;69.36;94528.56;5014942;28;20037;-71
2022/12/13 08:32:57;;;;;;;19.27;11.13;;;;;;;-0.24;68.18;94523.91;5032357;28;20022;-71
2022/12/13 08:35:22;;;;;;;19.30;9.65;;;;;;;-0.34;66.48;94514.97;5014835;28;20030;-72
2022/12/13 08:37:47;;;;;;;18.38;11.27;;;;;;;-0.17;65.59;94504.81;5031107;28;20021;-71
2022/12/13 08:40:13;;;;;;;24.77;14.55;;;;;;;0.02;66.22;94509.09;5032516;28;20041;-71
2022/12/13 08:42:38;;;;;;;25.67;15.52;;;;;;;0.07;64.85;94507.97;5030708;28;20033;-72
2022/12/13 08:45:04;;;;;;;24.83;13.63;;;;;;;0.05;64.19;94508.94;5032314;28;20040;-72
2022/12/13 08:47:30;;;;;;;16.58;10.15;;;;;;;0.07;65.33;94509.72;5032219;28;20032;-71
2022/12/13 08:49:58;;;;;;;16.30;9.73;;;;;;;-0.05;65.71;94504.28;5030869;28;20044;-72
2022/12/13 08:52:23;;;;;;;18.73;10.07;;;;;;;-0.03;66.62;94502.50;5030802;28;20029;-71
2022/12/13 08:54:49;;;;;;;17.15;9.70;;;;;;;-0.07;67.17;94495.84;5030871;28;20040;-71
2022/12/13 08:57:14;;;;;;;18.58;9.98;;;;;;;0.07;66.11;94496.94;5030871;28;20419;-71
2022/12/13 08:59:40;;;;;;;18.88;10.07;;;;;;;-0.23;66.05;94433.63;5030751;28;20441;-72
2022/12/13 09:02:05;;;;;;;15.98;9.48;;;;;;;0.13;65.90;94476.22;5031755;28;20026;-71
2022/12/13 09:04:30;;;;;;;17.70;9.98;;;;;;;0.15;64.77;94469.31;5031906;28;20502;-71
2022/12/13 09:06:56;;;;;;;18.35;9.52;;;;;;;0.25;64.73;94475.63;5031733;28;20458;-72
2022/12/13 09:09:21;;;;;;;17.67;10.13;;;;;;;0.28;64.58;94482.31;4997578;28;20021;-72
2022/12/13 09:11:47;;;;;;;17.65;9.63;;;;;;;0.39;66.23;94492.84;5014143;28;20549;-72
2022/12/13 09:14:12;;;;;;;16.80;10.10;;;;;;;0.46;64.80;94483.16;5014202;28;20025;-72
2022/12/13 09:16:38;;;;;;;20.67;11.70;;;;;;;0.51;64.79;94471.81;5032148;28;20042;-71
2022/12/13 09:19:04;;;;;;;16.67;9.98;;;;;;;0.44;66.11;94471.28;5013934;28;20025;-72
2022/12/13 09:21:29;;;;;;;17.58;11.32;;;;;;;0.41;65.02;94461.19;5030582;28;20480;-71
2022/12/13 09:23:55;;;;;;;18.98;11.27;;;;;;;0.58;64.09;94473.16;5013936;28;20036;-71
2022/12/13 09:26:20;;;;;;;19.30;11.00;;;;;;;0.78;63.98;94466.22;5031986;28;20038;-71
2022/12/13 09:28:46;;;;;;;18.10;9.90;;;;;;;0.88;62.39;94431.63;5030251;28;20431;-71
2022/12/13 09:31:13;;;;;;;19.33;8.85;;;;;;;0.93;60.11;94467.19;5030488;28;20118;-71
2022/12/13 09:33:39;;;;;;;14.57;8.55;;;;;;;0.99;59.35;94451.53;5013983;28;20072;-71
2022/12/13 09:36:05;;;;;;;14.63;8.75;;;;;;;1.12;59.29;94447.44;5030116;28;20048;-71
2022/12/13 09:38:32;;;;;;;16.13;8.93;;;;;;;1.01;57.42;94444.63;5030099;28;20040;-71
2022/12/13 09:40:59;;;;;;;14.73;8.98;;;;;;;1.17;57.22;94449.75;5031324;28;20036;-70
2022/12/13 09:43:27;;;;;;;13.80;8.35;;;;;;;1.09;58.35;94447.59;5013834;28;20064;-71
2022/12/13 09:45:52;;;;;;;14.98;8.75;;;;;;;1.15;60.33;94446.47;5013688;28;20040;-70
2022/12/13 09:48:19;;;;;;;14.68;8.80;;;;;;;1.11;62.30;94420.19;4996950;28;20025;-70
2022/12/13 09:50:45;;;;;;;15.25;9.13;;;;;;;1.44;61.81;94437.25;5013689;28;20094;-71
2022/12/13 09:53:10;;;;;;;14.50;8.45;;;;;;;1.52;60.30;94446.16;4996585;28;20037;-71
2022/12/13 09:55:44;;;;;;;13.18;8.23;;;;;;;1.71;57.79;94440.88;5013358;28;20029;-70
2022/12/13 09:58:19;;;;;;;14.68;9.07;;;;;;;1.59;59.39;94427.91;5013460;28;20111;-70
2022/12/13 10:00:45;;;;;;;15.10;9.82;;;;;;;1.60;61.63;94437.25;4997137;28;20136;-70
2022/12/13 10:03:14;;;;;;;14.07;8.88;;;;;;;1.63;63.45;94432.78;5029651;28;20145;-70
2022/12/13 10:05:42;;;;;;;14.52;8.85;;;;;;;1.76;63.46;94433.78;5029803;28;20040;-70
2022/12/13 10:08:16;;;;;;;15.77;9.30;;;;;;;1.74;62.53;94407.41;5029680;28;20060;-70
2022/12/13 10:10:42;;;;;;;17.67;9.80;;;;;;;1.73;61.58;94413.47;5029759;28;20048;-70
2022/12/13 10:13:32;;;;;;;17.17;10.18;;;;;;;1.83;61.22;94436.00;5030788;28;20100;-70
2022/12/13 10:16:02;;;;;;;16.40;9.45;;;;;;;1.72;58.47;94421.22;5030680;28;20041;-70
2022/12/13 10:18:39;;;;;;;15.73;9.50;;;;;;;2.00;60.28;94425.66;5013787;28;20053;-70
2022/12/13 10:21:14;;;;;;;18.98;10.63;;;;;;;2.21;60.12;94414.22;5013495;28;20085;-70
2022/12/13 10:23:40;;;;;;;15.85;9.63;;;;;;;2.30;60.31;94414.59;5029579;28;20025;-70
2022/12/13 10:26:10;;;;;;;13.50;9.07;;;;;;;2.24;60.10;94411.47;5031163;28;20037;-70
2022/12/13 10:28:35;;;;;;;16.55;9.77;;;;;;;2.18;60.06;94401.56;5029610;28;20032;-70
2022/12/13 10:31:01;;;;;;;15.05;9.48;;;;;;;2.26;59.66;94407.97;5013100;28;20030;-70
2022/12/13 10:33:29;;;;;;;15.25;9.63;;;;;;;2.32;60.41;94405.09;5013088;28;20033;-70
2022/12/13 10:36:05;;;;;;;16.63;10.07;;;;;;;2.26;59.88;94388.31;5013229;28;20041;-70
2022/12/13 10:38:34;;;;;;;14.95;9.75;;;;;;;2.20;61.73;94389.50;5029454;28;20099;-70
2022/12/13 10:41:00;;;;;;;18.55;9.98;;;;;;;2.28;61.56;94380.53;5013157;28;20029;-70
2022/12/13 10:43:26;;;;;;;16.33;9.50;;;;;;;2.15;61.13;94362.47;5029492;28;20052;-70
2022/12/13 10:45:54;;;;;;;15.70;9.65;;;;;;;2.10;59.37;94374.72;5013185;28;20030;-70
2022/12/13 10:48:21;;;;;;;18.98;10.88;;;;;;;1.86;54.42;94371.78;5030484;28;20013;-70
2022/12/13 10:51:04;;;;;;;18.02;11.18;;;;;;;1.97;57.97;94374.59;5013140;28;20124;-70
2022/12/13 10:53:39;;;;;;;16.15;9.98;;;;;;;2.19;59.80;94372.44;5013563;28;20081;-71
2022/12/13 10:56:05;;;;;;;21.55;12.05;;;;;;;2.31;56.20;94362.41;4996959;28;20072;-71
2022/12/13 10:58:41;;;;;;;17.65;10.27;;;;;;;2.20;54.57;94366.44;5012929;28;20037;-70
2022/12/13 11:01:10;;;;;;;16.65;9.48;;;;;;;2.38;50.90;94366.28;5013108;28;20040;-70
2022/12/13 11:03:35;;;;;;;14.75;9.43;;;;;;;2.33;54.65;94365.72;5030393;28;20029;-70
2022/12/13 11:06:11;;;;;;;17.73;11.48;;;;;;;1.96;53.40;94355.00;5031898;28;20036;-70
2022/12/13 11:08:37;;;;;;;16.35;9.68;;;;;;;1.71;55.67;94360.69;5032869;28;20036;-70
2022/12/13 11:11:04;;;;;;;17.92;10.30;;;;;;;1.60;56.22;94358.69;5034308;28;20411;-70
2022/12/13 11:13:37;;;;;;;17.00;10.18;;;;;;;1.70;59.67;94357.28;5032811;28;20033;-71
2022/12/13 11:16:04;;;;;;;15.55;9.60;;;;;;;1.64;60.41;94349.94;5032776;28;20061;-70
2022/12/13 11:18:34;;;;;;;15.65;9.35;;;;;;;1.76;62.34;94362.06;5016408;28;20025;-71
2022/12/13 11:21:01;;;;;;;18.02;9.60;;;;;;;1.87;63.38;94351.22;5032518;28;20060;-70
2022/12/13 11:23:29;;;;;;;17.83;10.05;;;;;;;1.86;60.25;94336.75;5016258;28;20087;-70
2022/12/13 11:25:57;;;;;;;17.02;10.27;;;;;;;2.01;54.68;94330.78;5032643;28;20029;-71
2022/12/13 11:28:41;;;;;;;18.80;11.38;;;;;;;1.88;56.74;94334.94;5016339;28;20049;-71
2022/12/13 11:31:07;;;;;;;20.90;12.13;;;;;;;2.05;57.43;94336.53;5032591;28;20033;-71
2022/12/13 11:33:32;;;;;;;19.10;11.27;;;;;;;1.97;55.23;94331.84;5033889;28;20488;-70